Time;durP1;ratioP1;P1;durP2;ratioP2;P2;SDS_P1;SDS_P2;PMS_P1;PMS_P2;Temp;Humidity;BMP_temperature;BMP_pressure;BME280_temperature;BME280_humidity;BME280_pressure;Samples;Min_cycle;Max_cycle;Signal;HPM_P1;HPM_P2
2022/08/22 00:00:36;;;;;;;5.43;1.25;;;20.80;73.90;;;;;;5059950;28;20025;-89
2022/08/22 00:03:39;;;;;;;7.57;1.30;;;20.80;74.00;;;;;;5076907;28;20033;-92
2022/08/22 00:06:14;;;;;;;7.78;0.98;;;20.80;74.20;;;;;;5052998;28;20044;-91
2022/08/22 00:09:02;;;;;;;5.72;1.38;;;20.80;74.20;;;;;;5064327;28;20028;-92
2022/08/22 00:11:40;;;;;;;4.20;0.73;;;20.80;74.50;;;;;;5062577;28;20033;-92
2022/08/22 00:14:31;;;;;;;5.68;0.93;;;20.80;74.60;;;;;;5061327;28;20060;-92
2022/08/22 00:17:28;;;;;;;5.63;1.20;;;20.80;74.80;;;;;;5059428;28;20035;-92
2022/08/22 00:20:21;;;;;;;7.05;1.10;;;20.80;74.90;;;;;;5073604;28;20032;-92
2022/08/22 00:23:16;;;;;;;6.50;1.10;;;20.70;75.00;;;;;;5033702;28;20075;-91
2022/08/22 00:25:41;;;;;;;;;;;20.70;75.10;;;;;;5058965;28;20029;-92
2022/08/22 00:28:23;;;;;;;2.88;0.60;;;20.60;75.00;;;;;;5060917;28;20007;-92
2022/08/22 00:31:01;;;;;;;4.63;0.90;;;20.60;75.00;;;;;;5061185;28;20111;-91
2022/08/22 00:33:49;;;;;;;5.20;1.30;;;20.60;75.20;;;;;;5067341;28;20112;-91
2022/08/22 00:36:40;;;;;;;3.75;1.00;;;20.60;75.50;;;;;;5066682;28;20044;-93
2022/08/22 00:39:15;;;;;;;6.55;1.10;;;20.60;75.60;;;;;;5064417;28;20079;-92
2022/08/22 00:42:04;;;;;;;5.45;1.30;;;20.60;75.70;;;;;;5066876;28;20033;-84
2022/08/22 00:44:48;;;;;;;5.18;0.82;;;20.60;75.90;;;;;;5066739;28;20053;-92
2022/08/22 00:47:39;;;;;;;5.32;1.40;;;20.50;76.00;;;;;;5066350;28;20027;-92
2022/08/22 00:50:25;;;;;;;5.28;1.20;;;20.50;76.20;;;;;;5065765;28;20104;-91
2022/08/22 00:53:13;;;;;;;5.40;1.23;;;20.50;76.20;;;;;;5072542;28;20086;-89
2022/08/22 00:55:41;;;;;;;8.70;1.17;;;20.50;76.30;;;;;;5071440;28;20136;-91
2022/08/22 00:58:28;;;;;;;6.35;1.10;;;20.50;76.40;;;;;;5071476;28;20086;-90
2022/08/22 01:01:01;;;;;;;5.15;1.00;;;20.50;76.50;;;;;;5070129;28;20115;-91
2022/08/22 01:03:42;;;;;;;6.20;1.25;;;20.50;76.60;;;;;;5065274;28;20108;-92
2022/08/22 01:06:30;;;;;;;7.40;1.02;;;20.50;76.80;;;;;;5060175;28;20033;-93
2022/08/22 01:09:14;;;;;;;9.80;1.65;;;20.50;76.90;;;;;;5056657;28;20021;-93
2022/08/22 01:11:49;;;;;;;;;;;20.50;77.00;;;;;;5055556;28;20075;-93
2022/08/22 01:14:33;;;;;;;6.47;1.17;;;20.50;77.00;;;;;;5055350;28;19909;-92
2022/08/22 01:17:24;;;;;;;5.47;1.10;;;20.50;76.90;;;;;;5071136;28;20073;-90
2022/08/22 01:19:55;;;;;;;5.45;1.10;;;20.40;77.10;;;;;;5075360;28;20052;-90
2022/08/22 01:22:49;;;;;;;6.18;1.00;;;20.40;77.20;;;;;;5060828;28;20037;-94
2022/08/22 01:25:48;;;;;;;5.88;1.83;;;20.50;77.60;;;;;;5054573;28;20025;-92
2022/08/22 01:28:37;;;;;;;3.58;1.13;;;20.40;77.60;;;;;;5053924;28;20033;-92
2022/08/22 01:31:15;;;;;;;4.57;1.35;;;20.50;77.70;;;;;;5053853;28;20025;-93
2022/08/22 01:34:12;;;;;;;7.45;1.05;;;20.40;77.80;;;;;;5053809;28;20465;-92
2022/08/22 01:36:56;;;;;;;7.13;1.30;;;20.40;78.00;;;;;;5053493;28;20029;-94
2022/08/22 01:39:27;;;;;;;;;;;20.40;78.00;;;;;;5055600;28;20025;-92
2022/08/22 01:42:31;;;;;;;6.30;0.95;;;20.40;78.00;;;;;;5055139;28;20268;-91
2022/08/22 01:45:16;;;;;;;7.53;1.55;;;20.40;77.90;;;;;;5053930;28;20112;-93
2022/08/22 01:47:52;;;;;;;9.00;1.50;;;20.40;78.00;;;;;;5053845;28;20029;-91
2022/08/22 01:50:24;;;;;;;5.63;1.20;;;20.40;78.20;;;;;;5056179;28;20112;-92
2022/08/22 01:53:04;;;;;;;7.32;1.20;;;20.40;78.40;;;;;;5057234;28;20070;-91
2022/08/22 01:55:38;;;;;;;6.03;1.02;;;20.40;78.50;;;;;;5055067;28;20385;-90
2022/08/22 01:58:22;;;;;;;5.97;1.35;;;20.40;78.60;;;;;;5055695;28;20024;-93
2022/08/22 02:00:57;;;;;;;;;;;20.40;79.40;;;;;;5061015;28;20024;-93
2022/08/22 02:03:41;;;;;;;4.20;0.95;;;20.40;79.30;;;;;;5058608;28;20373;-91
2022/08/22 02:06:20;;;;;;;7.15;1.55;;;20.30;78.60;;;;;;5056490;28;20028;-94
2022/08/22 02:09:02;;;;;;;5.82;1.33;;;20.40;78.80;;;;;;5060259;28;20035;-91
2022/08/22 02:11:54;;;;;;;6.70;1.20;;;20.30;78.80;;;;;;5056937;28;20025;-91
2022/08/22 02:14:51;;;;;;;6.78;1.10;;;20.40;79.70;;;;;;5065951;28;20148;-88
2022/08/22 02:17:34;;;;;;;3.58;0.85;;;20.40;79.10;;;;;;5057158;28;20050;-93
2022/08/22 02:20:17;;;;;;;5.47;1.20;;;20.40;79.10;;;;;;5055379;28;20029;-93
2022/08/22 02:23:02;;;;;;;6.40;1.40;;;20.30;79.20;;;;;;5054492;28;20079;-92
2022/08/22 02:25:33;;;;;;;3.95;1.02;;;20.30;79.30;;;;;;5052760;28;20050;-91
2022/08/22 02:28:14;;;;;;;4.88;1.05;;;20.30;79.30;;;;;;5053103;28;20025;-92
2022/08/22 02:30:46;;;;;;;4.93;1.00;;;20.30;79.40;;;;;;5054261;28;20029;-91
2022/08/22 02:33:21;;;;;;;5.85;1.40;;;20.30;79.30;;;;;;5054317;28;20033;-92
2022/08/22 02:35:59;;;;;;;6.85;1.25;;;20.30;79.40;;;;;;5054381;28;20021;-92
2022/08/22 02:38:30;;;;;;;6.95;1.45;;;20.30;79.50;;;;;;5053067;28;20025;-93
2022/08/22 02:41:16;;;;;;;6.80;1.25;;;20.30;79.60;;;;;;5053356;28;20851;-93
2022/08/22 02:43:45;;;;;;;8.45;1.55;;;20.30;79.70;;;;;;5058837;28;20033;-93
2022/08/22 02:46:20;;;;;;;6.57;1.85;;;20.30;79.80;;;;;;5055208;28;20029;-93
2022/08/22 02:49:01;;;;;;;6.70;2.03;;;20.30;80.00;;;;;;5055749;28;20037;-93
2022/08/22 02:51:40;;;;;;;3.78;1.15;;;20.30;80.00;;;;;;5054765;28;20029;-93
2022/08/22 02:54:19;;;;;;;5.45;1.10;;;20.30;80.10;;;;;;5056448;28;20044;-93
2022/08/22 02:56:47;;;;;;;6.90;1.52;;;20.20;80.20;;;;;;5056945;28;20088;-92
2022/08/22 02:59:22;;;;;;;6.95;1.52;;;20.30;80.20;;;;;;5060828;28;20036;-92
2022/08/22 03:01:50;;;;;;;5.90;1.13;;;20.20;80.40;;;;;;5058087;28;20040;-93
2022/08/22 03:04:30;;;;;;;6.82;1.77;;;20.20;80.40;;;;;;5057986;28;20025;-93
2022/08/22 03:07:24;;;;;;;5.47;1.50;;;20.20;80.50;;;;;;5057779;28;20021;-88
2022/08/22 03:10:14;;;;;;;7.15;1.70;;;20.20;80.60;;;;;;5057749;28;20127;-94
2022/08/22 03:13:06;;;;;;;9.73;1.67;;;20.20;80.50;;;;;;5055946;28;20104;-93
2022/08/22 03:15:38;;;;;;;6.68;1.30;;;20.20;80.60;;;;;;5058885;28;20100;-93
2022/08/22 03:18:13;;;;;;;8.73;1.60;;;20.20;80.70;;;;;;5069923;28;20052;-93
2022/08/22 03:20:54;;;;;;;3.83;1.10;;;20.20;80.80;;;;;;5077177;28;20021;-93
2022/08/22 03:23:19;;;;;;;5.22;1.30;;;20.20;80.90;;;;;;5077978;28;20089;-93
2022/08/22 03:26:11;;;;;;;5.10;1.80;;;20.20;81.00;;;;;;5072259;28;20047;-93
2022/08/22 03:28:55;;;;;;;6.88;1.65;;;20.20;81.20;;;;;;5058522;28;20090;-93
2022/08/22 03:31:24;;;;;;;6.68;1.55;;;20.20;81.20;;;;;;5058428;28;20040;-93
2022/08/22 03:34:19;;;;;;;8.70;1.70;;;20.10;81.20;;;;;;5056022;28;20028;-93
2022/08/22 03:37:13;;;;;;;6.53;1.38;;;20.10;81.30;;;;;;5073141;28;20071;-93
2022/08/22 03:39:57;;;;;;;;;;;20.10;81.40;;;;;;5052353;28;20052;-91
2022/08/22 03:42:50;;;;;;;7.10;1.52;;;20.10;81.30;;;;;;5055979;28;19960;-93
2022/08/22 03:45:40;;;;;;;4.40;1.25;;;20.00;81.20;;;;;;5055882;28;20028;-92
2022/08/22 03:48:28;;;;;;;7.43;1.67;;;20.00;81.30;;;;;;5056535;28;20035;-93
2022/08/22 03:51:07;;;;;;;5.78;1.42;;;20.00;81.50;;;;;;5034687;28;20037;-92
2022/08/22 03:54:06;;;;;;;6.22;1.52;;;20.00;81.60;;;;;;5055288;28;20112;-93
2022/08/22 03:56:59;;;;;;;7.55;1.63;;;20.00;81.80;;;;;;5056098;28;20144;-91
2022/08/22 03:59:34;;;;;;;6.47;1.65;;;20.00;81.90;;;;;;5056243;28;20013;-93
2022/08/22 04:02:24;;;;;;;8.95;2.05;;;20.00;81.90;;;;;;5056498;28;20033;-90
2022/08/22 04:05:16;;;;;;;6.38;1.73;;;20.00;82.10;;;;;;5055086;28;20028;-91
2022/08/22 04:07:54;;;;;;;4.97;1.40;;;20.00;82.80;;;;;;5055540;28;20071;-91
2022/08/22 04:10:41;;;;;;;9.60;1.95;;;19.90;82.10;;;;;;5055391;28;20028;-92
2022/08/22 04:13:26;;;;;;;6.30;1.48;;;20.00;82.10;;;;;;5056456;28;20064;-91
2022/08/22 04:15:57;;;;;;;5.18;1.20;;;19.90;82.10;;;;;;5056490;28;20461;-92
2022/08/22 04:19:01;;;;;;;7.93;1.65;;;19.90;82.10;;;;;;5055841;28;20021;-91
2022/08/22 04:21:46;;;;;;;6.85;1.00;;;20.00;82.20;;;;;;5035068;28;20037;-92
2022/08/22 04:24:28;;;;;;;4.63;1.45;;;20.00;82.20;;;;;;5054969;28;20036;-92
2022/08/22 04:27:01;;;;;;;7.20;1.45;;;19.90;82.20;;;;;;5055328;28;20017;-92
2022/08/22 04:29:35;;;;;;;4.25;1.23;;;19.90;82.30;;;;;;5055360;28;20044;-92
2022/08/22 04:32:15;;;;;;;7.63;2.17;;;19.90;82.30;;;;;;5056311;28;20029;-91
2022/08/22 04:34:54;;;;;;;9.50;1.83;;;20.00;82.50;;;;;;5055319;28;20033;-91
2022/08/22 04:37:38;;;;;;;7.30;1.85;;;19.90;82.40;;;;;;5054920;28;20405;-91
2022/08/22 04:40:18;;;;;;;6.82;1.52;;;20.00;82.50;;;;;;5055631;28;20039;-90
2022/08/22 04:42:54;;;;;;;11.38;1.67;;;19.90;82.70;;;;;;5055862;28;20032;-91
2022/08/22 04:45:43;;;;;;;7.95;1.85;;;19.90;82.60;;;;;;5054737;28;20025;-91
2022/08/22 04:48:14;;;;;;;7.72;1.65;;;20.00;82.70;;;;;;5053794;28;20082;-91
2022/08/22 04:50:49;;;;;;;10.77;1.55;;;19.90;82.80;;;;;;5054588;28;20439;-92
2022/08/22 04:53:39;;;;;;;4.60;1.25;;;19.90;82.80;;;;;;5055674;28;20055;-90
2022/08/22 04:56:11;;;;;;;4.40;1.52;;;20.00;82.90;;;;;;5054007;28;20061;-92
2022/08/22 04:58:56;;;;;;;8.30;1.80;;;19.90;82.80;;;;;;5055652;28;20032;-92
2022/08/22 05:01:45;;;;;;;5.65;1.63;;;19.90;82.70;;;;;;5055969;28;20117;-91
2022/08/22 05:04:20;;;;;;;8.25;1.33;;;19.90;82.70;;;;;;5053803;28;20480;-92
2022/08/22 05:06:53;;;;;;;5.88;1.52;;;19.90;82.70;;;;;;5055678;28;20542;-92
2022/08/22 05:09:25;;;;;;;5.65;1.38;;;20.00;82.80;;;;;;5056121;28;20025;-92
2022/08/22 05:11:56;;;;;;;6.28;1.90;;;19.90;82.90;;;;;;5055730;28;20032;-89
2022/08/22 05:14:48;;;;;;;8.20;2.00;;;19.90;83.00;;;;;;5055596;28;20477;-92
2022/08/22 05:17:20;;;;;;;10.13;1.90;;;19.90;83.10;;;;;;5055357;28;20025;-92
2022/08/22 05:19:49;;;;;;;10.00;1.98;;;19.90;83.00;;;;;;5056633;28;20025;-93
2022/08/22 05:22:20;;;;;;;8.18;2.15;;;19.90;83.00;;;;;;5055358;28;20033;-93
2022/08/22 05:24:50;;;;;;;5.40;1.77;;;20.00;83.00;;;;;;5056939;28;20052;-92
2022/08/22 05:27:23;;;;;;;8.88;2.28;;;19.90;82.90;;;;;;5090783;28;20025;-91
2022/08/22 05:29:54;;;;;;;7.70;2.30;;;20.00;83.00;;;;;;5074980;28;20029;-93
2022/08/22 05:32:29;;;;;;;6.07;1.40;;;20.00;82.90;;;;;;5059301;28;20025;-92
2022/08/22 05:35:00;;;;;;;6.75;1.58;;;19.90;82.90;;;;;;5059592;28;20033;-93
2022/08/22 05:37:47;;;;;;;5.82;1.73;;;20.00;83.00;;;;;;5059510;28;20116;-92
2022/08/22 05:40:24;;;;;;;7.18;2.20;;;20.00;83.00;;;;;;5061776;28;20017;-92
2022/08/22 05:42:52;;;;;;;7.97;2.42;;;20.00;83.00;;;;;;5067831;28;20045;-91
2022/08/22 05:45:19;;;;;;;7.60;1.88;;;20.00;83.00;;;;;;5059560;28;20035;-92
2022/08/22 05:47:50;;;;;;;7.63;1.95;;;20.00;83.00;;;;;;5040032;28;20029;-92
2022/08/22 05:50:22;;;;;;;5.00;1.58;;;20.10;83.10;;;;;;5057562;28;20090;-92
2022/08/22 05:53:07;;;;;;;12.70;2.60;;;20.10;83.20;;;;;;5062519;28;20031;-90
2022/08/22 05:56:06;;;;;;;7.90;2.38;;;20.10;83.20;;;;;;5059734;28;20056;-92
2022/08/22 05:58:38;;;;;;;6.95;1.95;;;20.10;83.20;;;;;;5056027;28;20037;-93
2022/08/22 06:01:43;;;;;;;9.50;2.40;;;20.10;83.10;;;;;;5054962;28;20025;-92
2022/08/22 06:04:42;;;;;;;10.05;2.33;;;20.20;83.20;;;;;;5059416;28;20037;-93
2022/08/22 06:07:16;;;;;;;5.85;2.03;;;20.20;83.00;;;;;;5060868;28;20049;-92
2022/08/22 06:09:44;;;;;;;;;;;20.20;82.90;;;;;;5063843;28;20041;-92
2022/08/22 06:12:28;;;;;;;7.57;2.05;;;20.20;82.80;;;;;;5059562;28;19936;-93
2022/08/22 06:15:02;;;;;;;9.20;2.33;;;20.30;82.80;;;;;;5055805;28;20055;-92
2022/08/22 06:17:36;;;;;;;5.93;2.05;;;20.30;82.80;;;;;;5054857;28;20054;-92
2022/08/22 06:20:08;;;;;;;8.77;2.10;;;20.30;82.90;;;;;;5055103;28;20035;-93
2022/08/22 06:22:40;;;;;;;10.18;2.03;;;20.30;82.90;;;;;;5053726;28;20634;-93
2022/08/22 06:25:12;;;;;;;6.38;2.08;;;20.40;83.00;;;;;;5053837;28;20047;-92
2022/08/22 06:27:38;;;;;;;7.30;2.00;;;20.40;83.00;;;;;;5052753;28;20060;-93
2022/08/22 06:30:05;;;;;;;5.40;1.90;;;20.40;82.90;;;;;;5054560;28;20548;-92
2022/08/22 06:32:36;;;;;;;5.70;1.92;;;20.40;82.80;;;;;;5054809;28;20115;-92
2022/08/22 06:35:09;;;;;;;9.60;2.47;;;20.50;82.80;;;;;;5058337;28;20077;-92
2022/08/22 06:37:39;;;;;;;8.38;1.92;;;20.60;82.70;;;;;;5056971;28;20021;-93
2022/08/22 06:40:09;;;;;;;13.82;2.10;;;20.60;82.50;;;;;;5057836;28;20036;-92
2022/08/22 06:42:43;;;;;;;8.95;2.17;;;20.60;82.30;;;;;;5059913;28;20080;-93
2022/08/22 06:45:16;;;;;;;10.05;2.00;;;20.70;82.20;;;;;;5057808;28;20070;-90
2022/08/22 06:47:47;;;;;;;8.10;2.53;;;20.70;82.10;;;;;;5057265;28;20037;-94
2022/08/22 06:50:22;;;;;;;6.80;1.95;;;20.70;82.00;;;;;;5058471;28;20491;-91
2022/08/22 06:53:00;;;;;;;9.20;2.25;;;20.80;82.10;;;;;;5058599;28;20021;-94
2022/08/22 06:55:29;;;;;;;8.98;1.95;;;20.80;82.10;;;;;;5057091;28;20135;-94
2022/08/22 06:57:58;;;;;;;6.45;2.33;;;20.80;82.00;;;;;;5039725;28;20040;-94
2022/08/22 07:00:25;;;;;;;7.28;2.28;;;20.90;81.90;;;;;;5056448;28;20025;-94
2022/08/22 07:02:57;;;;;;;11.38;2.20;;;20.90;81.70;;;;;;5057668;28;20261;-92
2022/08/22 07:05:32;;;;;;;7.53;2.15;;;20.80;81.40;;;;;;5056400;28;20021;-94
2022/08/22 07:08:15;;;;;;;5.90;2.13;;;21.00;81.30;;;;;;5057786;28;20025;-93
2022/08/22 07:11:03;;;;;;;10.93;2.25;;;21.00;81.10;;;;;;5057999;28;20484;-93
2022/08/22 07:13:30;;;;;;;9.88;2.13;;;21.00;80.90;;;;;;5050097;28;20124;-92
2022/08/22 07:15:58;;;;;;;6.05;1.73;;;21.10;81.40;;;;;;5057143;28;20040;-94
2022/08/22 07:18:26;;;;;;;6.35;2.05;;;21.20;80.60;;;;;;5056781;28;20021;-93
2022/08/22 07:21:00;;;;;;;9.07;2.38;;;21.20;80.30;;;;;;5057666;28;20028;-92
2022/08/22 07:23:32;;;;;;;;;;;21.20;80.10;;;;;;5056704;28;20428;-94
2022/08/22 07:26:26;;;;;;;9.93;2.30;;;21.30;79.90;;;;;;5057978;28;19904;-93
2022/08/22 07:28:59;;;;;;;10.35;2.10;;;21.30;79.70;;;;;;5056639;28;20163;-94
2022/08/22 07:31:39;;;;;;;6.93;2.00;;;21.40;79.60;;;;;;5057360;28;20021;-93
2022/08/22 07:34:16;;;;;;;5.65;2.15;;;21.40;79.60;;;;;;5057315;28;20033;-93
2022/08/22 07:36:54;;;;;;;10.60;2.13;;;21.50;79.60;;;;;;5056074;28;20040;-93
2022/08/22 07:39:45;;;;;;;6.95;1.63;;;21.50;79.40;;;;;;5055846;28;20021;-94
2022/08/22 07:42:47;;;;;;;6.95;2.05;;;21.50;79.20;;;;;;5056454;28;20110;-93
2022/08/22 07:45:52;;;;;;;8.35;1.95;;;21.50;79.00;;;;;;5042415;28;20033;-92
2022/08/22 07:48:37;;;;;;;6.07;1.63;;;21.60;78.80;;;;;;5057828;28;20025;-92
2022/08/22 07:51:10;;;;;;;5.28;1.40;;;21.70;78.70;;;;;;5056971;28;20021;-94
2022/08/22 07:53:55;;;;;;;8.80;2.30;;;21.70;78.40;;;;;;5057386;28;20028;-94
2022/08/22 07:56:26;;;;;;;9.60;1.83;;;21.70;78.20;;;;;;5072461;28;20057;-94
2022/08/22 07:58:57;;;;;;;5.13;1.33;;;21.80;78.00;;;;;;5056438;28;20027;-94
2022/08/22 08:01:24;;;;;;;10.32;1.88;;;21.80;77.80;;;;;;5057676;28;20047;-91
2022/08/22 08:03:54;;;;;;;9.48;1.70;;;21.90;77.60;;;;;;5056834;28;20052;-94
2022/08/22 08:06:22;;;;;;;4.53;1.77;;;21.90;77.50;;;;;;5058560;28;20064;-93
2022/08/22 08:08:50;;;;;;;8.93;2.10;;;22.00;77.40;;;;;;5058533;28;20025;-93
2022/08/22 08:11:18;;;;;;;6.35;1.60;;;22.10;77.30;;;;;;5059210;28;20104;-95
2022/08/22 08:13:49;;;;;;;9.43;2.08;;;22.20;77.10;;;;;;5060692;28;20029;-95
2022/08/22 08:16:18;;;;;;;6.18;1.73;;;22.20;76.80;;;;;;5061784;28;20021;-94
2022/08/22 08:18:47;;;;;;;5.22;1.67;;;22.30;76.60;;;;;;5059429;28;20462;-93
2022/08/22 08:21:52;;;;;;;5.53;1.40;;;22.40;76.30;;;;;;5059400;28;20337;-94
2022/08/22 08:24:31;;;;;;;7.75;1.77;;;22.40;75.80;;;;;;5016051;28;20066;-93
2022/08/22 08:30:02;;;;;;;8.32;1.90;;;22.60;75.60;;;;;;5062403;28;20039;-92
2022/08/22 08:32:32;;;;;;;4.25;1.30;;;22.70;75.40;;;;;;5063332;28;20105;-91
2022/08/22 08:35:04;;;;;;;7.15;1.48;;;22.70;75.20;;;;;;5061902;28;20163;-94
2022/08/22 08:37:55;;;;;;;7.97;2.03;;;22.80;75.10;;;;;;5057387;28;20025;-94
2022/08/22 08:40:30;;;;;;;5.88;1.42;;;22.80;74.70;;;;;;5056764;28;20036;-93
2022/08/22 08:43:28;;;;;;;4.28;1.40;;;22.80;74.50;;;;;;5055535;28;20041;-93
2022/08/22 08:46:24;;;;;;;7.10;2.00;;;22.90;74.20;;;;;;5056387;28;20033;-94
2022/08/22 08:49:13;;;;;;;4.05;1.33;;;23.00;74.10;;;;;;5055073;28;20052;-93
2022/08/22 08:52:15;;;;;;;9.95;1.60;;;23.00;73.90;;;;;;5055014;28;20075;-94
2022/08/22 08:54:54;;;;;;;6.30;1.38;;;23.00;73.50;;;;;;5054824;28;20025;-92
2022/08/22 08:57:41;;;;;;;8.45;1.90;;;23.00;73.50;;;;;;5056868;28;20048;-93
2022/08/22 09:00:14;;;;;;;7.82;1.98;;;23.00;73.30;;;;;;5054844;28;20468;-91
2022/08/22 09:03:17;;;;;;;5.32;1.75;;;23.00;73.10;;;;;;5055025;28;20025;-93
2022/08/22 09:06:05;;;;;;;7.60;1.92;;;23.00;72.90;;;;;;5055468;28;20024;-92
2022/08/22 09:08:56;;;;;;;7.82;1.75;;;23.00;72.80;;;;;;5055416;28;20024;-93
2022/08/22 09:11:47;;;;;;;5.32;1.70;;;23.10;72.80;;;;;;5055369;28;20037;-92
2022/08/22 09:14:43;;;;;;;7.38;2.28;;;23.00;72.60;;;;;;5054172;28;20063;-93
2022/08/22 09:17:23;;;;;;;7.13;2.00;;;23.10;72.50;;;;;;5060062;28;20017;-94
2022/08/22 09:20:11;;;;;;;8.38;1.67;;;23.10;72.40;;;;;;5060808;28;20029;-93
2022/08/22 09:22:57;;;;;;;7.18;1.92;;;23.10;72.30;;;;;;5065702;28;20033;-94
2022/08/22 09:25:41;;;;;;;7.18;1.60;;;23.10;72.40;;;;;;5055164;28;20063;-93
2022/08/22 09:28:17;;;;;;;5.85;1.60;;;23.20;72.50;;;;;;5059821;28;20036;-92
2022/08/22 09:31:12;;;;;;;4.88;1.80;;;23.30;72.30;;;;;;5055777;28;20484;-91
2022/08/22 09:33:53;;;;;;;7.38;1.92;;;23.40;72.20;;;;;;5057891;28;20025;-92
2022/08/22 09:36:24;;;;;;;5.40;1.30;;;23.40;71.80;;;;;;5056980;28;20024;-93
2022/08/22 09:38:58;;;;;;;7.75;1.70;;;23.50;71.50;;;;;;5056620;28;20029;-93
2022/08/22 09:41:24;;;;;;;;;;;23.60;71.10;;;;;;5055003;28;20134;-92
2022/08/22 09:44:25;;;;;;;4.75;0.98;;;23.70;70.90;;;;;;5053866;28;19913;-93
2022/08/22 09:47:05;;;;;;;7.60;1.92;;;23.70;70.80;;;;;;5054445;28;20031;-92
2022/08/22 09:49:45;;;;;;;9.68;1.60;;;23.80;70.30;;;;;;5053883;28;20028;-91
2022/08/22 09:52:21;;;;;;;5.00;1.40;;;23.90;69.80;;;;;;5071822;28;20425;-94
2022/08/22 09:54:56;;;;;;;7.70;1.65;;;24.00;69.40;;;;;;5072520;28;20516;-93
2022/08/22 09:57:46;;;;;;;5.38;1.13;;;24.10;69.00;;;;;;5073054;28;20025;-91
2022/08/22 10:00:16;;;;;;;5.93;1.30;;;24.10;68.50;;;;;;5075279;28;20032;-93
2022/08/22 10:02:52;;;;;;;6.25;1.50;;;24.20;68.40;;;;;;5074388;28;20036;-93
2022/08/22 10:05:37;;;;;;;4.82;1.20;;;24.30;68.00;;;;;;5073388;28;20066;-94
2022/08/22 10:08:09;;;;;;;6.85;1.30;;;24.30;67.80;;;;;;5073284;28;20346;-93
2022/08/22 10:10:56;;;;;;;3.95;0.93;;;24.50;67.50;;;;;;5074088;28;20078;-92
2022/08/22 10:13:34;;;;;;;7.22;1.27;;;24.50;66.90;;;;;;5074390;28;20035;-91
2022/08/22 10:16:39;;;;;;;7.28;1.05;;;24.60;66.30;;;;;;5073429;28;20024;-93
2022/08/22 10:19:16;;;;;;;;;;;24.70;65.70;;;;;;5073082;28;20028;-93
2022/08/22 10:22:05;;;;;;;5.40;1.20;;;24.80;65.80;;;;;;5073932;28;19904;-92
2022/08/22 10:24:39;;;;;;;7.72;1.45;;;25.00;65.80;;;;;;5052367;28;20045;-93
2022/08/22 10:27:13;;;;;;;;;;;25.10;65.10;;;;;;5073441;28;20112;-94
2022/08/22 10:29:41;;;;;;;5.32;1.27;;;25.30;64.90;;;;;;5073102;28;20269;-93
2022/08/22 10:32:13;;;;;;;5.13;1.00;;;25.40;64.90;;;;;;5073586;28;20032;-92
2022/08/22 10:34:45;;;;;;;7.90;1.45;;;25.60;64.00;;;;;;5073112;28;20024;-92
2022/08/22 10:37:34;;;;;;;5.38;1.30;;;25.80;63.30;;;;;;5072997;28;20469;-92
2022/08/22 10:40:13;;;;;;;6.85;1.10;;;25.90;62.10;;;;;;5073944;28;20021;-92
2022/08/22 10:42:51;;;;;;;7.18;1.17;;;26.20;61.80;;;;;;5073669;28;20071;-92
2022/08/22 10:45:22;;;;;;;4.70;1.15;;;26.30;61.50;;;;;;5073944;28;20028;-92
2022/08/22 10:47:57;;;;;;;5.22;1.35;;;26.50;61.00;;;;;;5072358;28;20039;-93
2022/08/22 10:50:32;;;;;;;6.40;1.00;;;26.70;60.50;;;;;;5072760;28;20028;-92
2022/08/22 10:53:29;;;;;;;6.68;1.35;;;26.80;59.50;;;;;;5073961;28;20032;-93
2022/08/22 10:56:03;;;;;;;6.35;1.30;;;27.00;58.80;;;;;;5072026;28;20110;-91
2022/08/22 10:58:35;;;;;;;5.38;1.33;;;27.10;58.20;;;;;;5073837;28;20037;-93
2022/08/22 11:01:03;;;;;;;3.42;0.98;;;27.20;57.40;;;;;;5073768;28;20032;-93
2022/08/22 11:03:58;;;;;;;4.68;0.90;;;27.30;56.80;;;;;;5072504;28;20040;-92
2022/08/22 11:06:38;;;;;;;4.93;1.08;;;27.40;56.00;;;;;;5073984;28;20028;-93
2022/08/22 11:09:16;;;;;;;4.60;0.80;;;27.50;56.00;;;;;;5072593;28;20020;-93
2022/08/22 11:12:00;;;;;;;5.30;0.90;;;27.60;55.50;;;;;;5072735;28;20078;-92
2022/08/22 11:14:40;;;;;;;4.57;1.00;;;27.80;55.20;;;;;;5075592;28;20108;-92
2022/08/22 11:17:33;;;;;;;5.07;0.88;;;27.90;54.90;;;;;;5074075;28;20025;-91
2022/08/22 11:20:04;;;;;;;3.85;1.00;;;28.10;54.30;;;;;;5077783;28;20027;-91
2022/08/22 11:23:06;;;;;;;3.97;0.95;;;28.40;54.30;;;;;;5079416;28;20040;-93
2022/08/22 11:25:44;;;;;;;4.93;1.00;;;28.60;53.70;;;;;;5077100;28;20115;-89
2022/08/22 11:28:48;;;;;;;3.97;0.77;;;28.90;53.80;;;;;;5077580;28;20021;-88
2022/08/22 11:32:01;;;;;;;3.90;1.00;;;29.20;53.30;;;;;;5077459;28;20033;-89
2022/08/22 11:34:51;;;;;;;3.25;0.80;;;29.50;53.00;;;;;;5018682;28;20441;-90
2022/08/22 11:37:46;;;;;;;5.00;1.00;;;29.90;52.90;;;;;;5074107;28;20036;-90
2022/08/22 11:40:18;;;;;;;3.83;0.90;;;30.20;52.00;;;;;;5072715;28;20518;-90
2022/08/22 11:42:50;;;;;;;5.20;1.13;;;30.40;51.70;;;;;;5077251;28;20039;-89
2022/08/22 11:45:22;;;;;;;4.90;0.80;;;30.60;51.10;;;;;;5078264;28;20088;-89
2022/08/22 11:48:13;;;;;;;6.75;1.10;;;30.80;50.70;;;;;;5080645;28;20025;-91
2022/08/22 11:51:05;;;;;;;3.65;0.85;;;30.90;49.80;;;;;;5078164;28;20055;-90
2022/08/22 11:53:33;;;;;;;4.32;1.08;;;31.00;48.90;;;;;;5079418;28;20104;-90
2022/08/22 11:56:22;;;;;;;4.65;0.98;;;31.20;48.90;;;;;;5077644;28;20049;-89
2022/08/22 11:59:20;;;;;;;3.97;1.00;;;31.40;48.10;;;;;;5078000;28;20108;-90
2022/08/22 12:02:02;;;;;;;4.97;1.00;;;31.50;47.80;;;;;;5076274;28;20045;-92
2022/08/22 12:04:33;;;;;;;3.47;0.90;;;31.50;47.60;;;;;;5075492;28;20037;-90
2022/08/22 12:07:12;;;;;;;4.55;1.10;;;31.50;47.60;;;;;;5076793;28;20032;-90
2022/08/22 12:09:50;;;;;;;4.35;0.88;;;31.60;47.50;;;;;;5075957;28;20016;-89
2022/08/22 12:12:37;;;;;;;2.42;0.95;;;31.50;47.40;;;;;;5076542;28;20021;-91
2022/08/22 12:15:08;;;;;;;4.57;0.88;;;31.50;47.10;;;;;;5077101;28;20024;-91
2022/08/22 12:18:16;;;;;;;2.03;0.80;;;31.50;47.00;;;;;;5077041;28;20115;-91
2022/08/22 12:20:47;;;;;;;6.57;1.25;;;31.50;46.50;;;;;;5076520;28;20086;-92
2022/08/22 12:23:32;;;;;;;4.78;1.00;;;31.40;46.70;;;;;;5075371;28;20047;-89
2022/08/22 12:26:16;;;;;;;3.88;1.13;;;31.40;46.60;;;;;;5074654;28;20020;-90
2022/08/22 12:29:18;;;;;;;4.03;1.10;;;31.30;46.70;;;;;;5075071;28;20033;-91
2022/08/22 12:32:27;;;;;;;5.22;1.17;;;31.30;46.70;;;;;;5076350;28;20021;-91
2022/08/22 12:35:23;;;;;;;5.20;1.20;;;31.30;46.80;;;;;;5074747;28;20043;-92
2022/08/22 12:37:52;;;;;;;5.75;0.95;;;31.30;46.80;;;;;;5074834;28;20024;-91
2022/08/22 12:40:20;;;;;;;4.57;1.00;;;31.30;46.60;;;;;;5074170;28;20460;-91
2022/08/22 12:43:01;;;;;;;3.55;0.93;;;31.30;46.10;;;;;;5074535;28;20036;-91
2022/08/22 12:46:08;;;;;;;4.10;1.08;;;31.40;45.80;;;;;;5074783;28;20507;-91
2022/08/22 12:48:51;;;;;;;5.78;0.90;;;31.40;45.60;;;;;;5076710;28;20041;-90
2022/08/22 12:51:41;;;;;;;6.68;1.08;;;31.40;45.90;;;;;;5075514;28;20027;-91
2022/08/22 12:54:44;;;;;;;3.75;0.88;;;31.40;46.00;;;;;;5074560;28;20039;-91
2022/08/22 12:57:33;;;;;;;5.07;1.30;;;31.50;46.20;;;;;;5074377;28;20037;-91
2022/08/22 13:00:24;;;;;;;4.63;1.20;;;31.50;46.50;;;;;;5074840;28;20017;-90
2022/08/22 13:02:54;;;;;;;6.18;1.00;;;31.40;46.30;;;;;;5075283;28;20063;-91
2022/08/22 13:05:24;;;;;;;4.85;1.00;;;31.40;46.30;;;;;;5057667;28;20028;-91
2022/08/22 13:08:01;;;;;;;4.22;0.80;;;31.30;45.90;;;;;;5074299;28;20020;-92
2022/08/22 13:10:33;;;;;;;4.68;1.00;;;31.30;45.70;;;;;;5075901;28;20162;-90
2022/08/22 13:13:00;;;;;;;5.93;1.00;;;31.20;45.70;;;;;;5077645;28;20098;-92
2022/08/22 13:15:36;;;;;;;4.32;0.90;;;31.10;45.80;;;;;;5077542;28;20036;-90
2022/08/22 13:18:11;;;;;;;4.93;1.10;;;31.00;45.90;;;;;;5073603;28;20025;-92
2022/08/22 13:20:40;;;;;;;7.03;1.48;;;31.00;46.30;;;;;;5078109;28;20078;-91
2022/08/22 13:23:31;;;;;;;4.38;1.10;;;30.90;46.30;;;;;;5079845;28;20043;-91
2022/08/22 13:26:16;;;;;;;6.80;1.00;;;30.90;45.70;;;;;;5080557;28;20032;-91
2022/08/22 13:28:50;;;;;;;5.05;1.00;;;30.90;45.60;;;;;;5076823;28;20029;-90
2022/08/22 13:31:26;;;;;;;4.43;1.00;;;30.90;45.30;;;;;;5076782;28;20032;-91
2022/08/22 13:34:02;;;;;;;3.28;0.80;;;30.90;45.40;;;;;;5074669;28;20388;-91
2022/08/22 13:36:30;;;;;;;5.18;1.08;;;30.90;45.60;;;;;;5074127;28;20016;-89
2022/08/22 13:39:14;;;;;;;9.05;1.10;;;30.90;45.60;;;;;;5076844;28;20037;-90
2022/08/22 13:41:52;;;;;;;7.13;0.88;;;31.10;45.50;;;;;;5075392;28;20020;-90
2022/08/22 13:44:26;;;;;;;4.22;1.17;;;31.20;45.40;;;;;;5077443;28;20029;-91
2022/08/22 13:46:54;;;;;;;3.70;0.77;;;31.30;45.20;;;;;;5090997;28;20028;-88
2022/08/22 13:49:39;;;;;;;3.13;0.85;;;31.30;45.10;;;;;;5094008;28;20066;-88
2022/08/22 13:52:14;;;;;;;3.42;1.00;;;31.40;44.70;;;;;;5083949;28;20040;-88
2022/08/22 13:54:58;;;;;;;4.85;0.82;;;31.40;44.50;;;;;;5079353;28;20052;-91
2022/08/22 13:57:30;;;;;;;4.55;0.93;;;31.50;44.50;;;;;;5075190;28;20399;-88
2022/08/22 14:00:17;;;;;;;4.43;0.90;;;31.40;44.20;;;;;;5075955;28;20024;-91